Time;durP1;ratioP1;P1;durP2;ratioP2;P2;SDS_P1;SDS_P2;PMS_P1;PMS_P2;Temp;Humidity;BMP_temperature;BMP_pressure;BME280_temperature;BME280_humidity;BME280_pressure;Samples;Min_cycle;Max_cycle;Signal;HPM_P1;HPM_P2
2023/09/19 00:01:34;;;;;;;2.95;1.02;;;;;;;;;;5078197;28;20059;-66
2023/09/19 00:04:02;;;;;;;2.75;1.20;;;;;;;;;;5071925;28;20041;-66
2023/09/19 00:06:31;;;;;;;1.83;1.20;;;;;;;;;;5072251;28;20500;-67
2023/09/19 00:08:59;;;;;;;3.60;1.90;;;;;;;;;;5071865;28;20052;-66
2023/09/19 00:11:27;;;;;;;2.28;1.20;;;;;;;;;;5072241;28;20450;-66
2023/09/19 00:13:54;;;;;;;8.20;1.85;;;;;;;;;;5071882;28;20057;-66
2023/09/19 00:16:21;;;;;;;3.58;1.52;;;;;;;;;;5072511;28;20078;-66
2023/09/19 00:18:48;;;;;;;3.40;1.33;;;;;;;;;;5074649;28;20055;-67
2023/09/19 00:21:17;;;;;;;5.15;1.83;;;;;;;;;;5092514;28;20503;-66
2023/09/19 00:23:43;;;;;;;3.97;1.38;;;;;;;;;;5091962;28;20055;-66
2023/09/19 00:26:10;;;;;;;4.60;1.70;;;;;;;;;;5092278;28;20056;-66
2023/09/19 00:28:37;;;;;;;3.17;1.30;;;;;;;;;;5091990;28;20242;-66
2023/09/19 00:31:04;;;;;;;3.22;1.20;;;;;;;;;;5088395;28;20059;-66
2023/09/19 00:33:31;;;;;;;2.10;1.00;;;;;;;;;;5092239;28;20048;-66
2023/09/19 00:35:58;;;;;;;3.65;1.15;;;;;;;;;;5092329;28;20048;-66
2023/09/19 00:38:27;;;;;;;6.75;1.38;;;;;;;;;;5092286;28;20059;-66
2023/09/19 00:40:56;;;;;;;3.47;1.20;;;;;;;;;;5092638;28;20048;-66
2023/09/19 00:43:24;;;;;;;5.45;1.30;;;;;;;;;;5095635;28;20060;-66
2023/09/19 00:45:52;;;;;;;4.15;1.40;;;;;;;;;;5091992;28;20048;-66
2023/09/19 00:48:20;;;;;;;5.28;1.73;;;;;;;;;;5096024;28;20052;-66
2023/09/19 00:50:47;;;;;;;4.47;1.23;;;;;;;;;;5095824;28;20056;-66
2023/09/19 00:53:15;;;;;;;2.38;1.00;;;;;;;;;;5095690;28;20055;-66
2023/09/19 00:55:44;;;;;;;2.80;0.90;;;;;;;;;;5095766;28;20048;-66
2023/09/19 00:58:11;;;;;;;4.03;1.15;;;;;;;;;;5090525;28;20055;-66
2023/09/19 01:00:38;;;;;;;2.83;1.10;;;;;;;;;;5078200;28;20048;-65
2023/09/19 01:03:06;;;;;;;7.63;1.75;;;;;;;;;;5075144;28;20401;-66
2023/09/19 01:05:34;;;;;;;2.70;1.08;;;;;;;;;;5074984;28;20052;-66
2023/09/19 01:08:01;;;;;;;4.57;1.38;;;;;;;;;;5075233;28;20059;-66
2023/09/19 01:10:28;;;;;;;4.45;1.88;;;;;;;;;;5074627;28;20059;-66
2023/09/19 01:13:05;;;;;;;3.65;1.25;;;;;;;;;;5075040;28;20048;-66
2023/09/19 01:15:40;;;;;;;2.50;1.23;;;;;;;;;;5072886;28;20051;-65
2023/09/19 01:18:17;;;;;;;6.53;1.55;;;;;;;;;;5075160;28;20060;-65
2023/09/19 01:20:47;;;;;;;5.05;1.23;;;;;;;;;;5074882;28;20083;-65
2023/09/19 01:23:14;;;;;;;;;;;;;;;;;;5095618;28;20052;-66
2023/09/19 01:25:57;;;;;;;3.20;1.08;;;;;;;;;;5095184;28;19927;-65
2023/09/19 01:28:36;;;;;;;3.15;1.10;;;;;;;;;;5095033;28;20500;-66
2023/09/19 01:31:05;;;;;;;2.78;1.30;;;;;;;;;;5093968;28;20408;-65
2023/09/19 01:33:47;;;;;;;7.82;1.58;;;;;;;;;;5092285;28;20044;-66
2023/09/19 01:36:15;;;;;;;9.38;1.75;;;;;;;;;;5074247;28;20056;-66
2023/09/19 01:38:42;;;;;;;5.90;1.10;;;;;;;;;;5086199;28;20052;-66
2023/09/19 01:41:12;;;;;;;3.47;1.13;;;;;;;;;;5094952;28;20067;-65
2023/09/19 01:43:42;;;;;;;3.35;1.25;;;;;;;;;;5094823;28;20051;-66
2023/09/19 01:46:14;;;;;;;3.63;1.30;;;;;;;;;;5074830;28;20052;-65
2023/09/19 01:48:46;;;;;;;3.03;1.45;;;;;;;;;;5078920;28;20405;-66
2023/09/19 01:51:15;;;;;;;2.78;0.80;;;;;;;;;;5094680;28;20068;-65
2023/09/19 01:53:49;;;;;;;7.70;1.40;;;;;;;;;;5088665;28;20397;-65
2023/09/19 01:56:21;;;;;;;3.13;1.60;;;;;;;;;;5074502;28;20048;-65
2023/09/19 01:58:49;;;;;;;6.47;1.50;;;;;;;;;;5074374;28;20055;-66
2023/09/19 02:01:20;;;;;;;3.90;1.33;;;;;;;;;;5081651;28;20478;-65
2023/09/19 02:03:48;;;;;;;3.40;1.20;;;;;;;;;;5071839;28;20044;-65
2023/09/19 02:06:15;;;;;;;4.68;1.38;;;;;;;;;;5074127;28;20481;-66
2023/09/19 02:08:42;;;;;;;2.50;1.00;;;;;;;;;;5074292;28;20429;-65
2023/09/19 02:11:09;;;;;;;4.07;1.52;;;;;;;;;;5074402;28;20056;-65
2023/09/19 02:13:36;;;;;;;3.28;1.17;;;;;;;;;;5074261;28;20056;-65
2023/09/19 02:16:04;;;;;;;7.22;1.92;;;;;;;;;;5073276;28;20052;-65
2023/09/19 02:18:34;;;;;;;4.30;1.58;;;;;;;;;;5072999;28;20048;-65
2023/09/19 02:21:01;;;;;;;5.18;1.58;;;;;;;;;;5074244;28;20402;-65
2023/09/19 02:23:29;;;;;;;3.10;1.45;;;;;;;;;;5073877;28;20402;-65
2023/09/19 02:25:57;;;;;;;3.83;1.40;;;;;;;;;;5073797;28;20398;-65
2023/09/19 02:28:24;;;;;;;5.88;1.38;;;;;;;;;;5073757;28;20505;-65
2023/09/19 02:30:50;;;;;;;4.57;2.15;;;;;;;;;;5073025;28;20478;-65
2023/09/19 02:33:18;;;;;;;3.65;1.20;;;;;;;;;;5072773;28;20052;-65
2023/09/19 02:35:46;;;;;;;4.50;1.67;;;;;;;;;;5073351;28;20397;-65
2023/09/19 02:38:14;;;;;;;2.55;1.25;;;;;;;;;;5073237;28;20063;-65
2023/09/19 02:40:43;;;;;;;4.18;1.20;;;;;;;;;;5073445;28;20049;-65
2023/09/19 02:43:10;;;;;;;3.40;1.23;;;;;;;;;;5072949;28;20520;-65
2023/09/19 02:45:37;;;;;;;5.53;1.40;;;;;;;;;;5074039;28;20059;-65
2023/09/19 02:48:07;;;;;;;4.10;1.45;;;;;;;;;;5073171;28;20059;-66
2023/09/19 02:50:34;;;;;;;3.15;1.00;;;;;;;;;;5073336;28;20382;-65
2023/09/19 02:53:04;;;;;;;2.78;1.13;;;;;;;;;;5072911;28;20048;-65
2023/09/19 02:55:31;;;;;;;3.67;1.42;;;;;;;;;;5072973;28;20052;-65
2023/09/19 02:57:58;;;;;;;7.13;1.73;;;;;;;;;;5073134;28;20060;-65
2023/09/19 03:00:26;;;;;;;2.40;1.05;;;;;;;;;;5073401;28;20052;-65
2023/09/19 03:02:54;;;;;;;3.15;1.27;;;;;;;;;;5072304;28;20052;-64
2023/09/19 03:05:21;;;;;;;5.80;1.35;;;;;;;;;;5072923;28;20049;-65
2023/09/19 03:07:50;;;;;;;4.32;1.52;;;;;;;;;;5073142;28;20048;-65
2023/09/19 03:10:18;;;;;;;4.45;1.25;;;;;;;;;;5073031;28;20473;-65
2023/09/19 03:12:45;;;;;;;3.58;1.05;;;;;;;;;;5072931;28;20064;-65
2023/09/19 03:15:12;;;;;;;4.65;1.67;;;;;;;;;;5072109;28;20060;-66
2023/09/19 03:17:43;;;;;;;4.07;1.65;;;;;;;;;;5081077;28;20059;-66
2023/09/19 03:20:12;;;;;;;4.57;1.52;;;;;;;;;;5093226;28;20458;-65
2023/09/19 03:22:39;;;;;;;5.85;1.98;;;;;;;;;;5088415;28;20053;-65
2023/09/19 03:25:07;;;;;;;3.25;1.17;;;;;;;;;;5074832;28;20044;-66
2023/09/19 03:27:36;;;;;;;3.50;1.65;;;;;;;;;;5090141;28;20051;-66
2023/09/19 03:30:13;;;;;;;5.47;1.42;;;;;;;;;;5076944;28;20482;-66
2023/09/19 03:32:44;;;;;;;5.18;1.70;;;;;;;;;;5072839;28;20052;-65
2023/09/19 03:35:14;;;;;;;7.82;1.30;;;;;;;;;;5072360;28;20056;-65
2023/09/19 03:37:41;;;;;;;4.63;1.48;;;;;;;;;;5072202;28;20056;-65
2023/09/19 03:40:10;;;;;;;3.22;1.02;;;;;;;;;;5072262;28;20086;-65
2023/09/19 03:42:40;;;;;;;3.53;1.50;;;;;;;;;;5072332;28;20060;-66
2023/09/19 03:45:09;;;;;;;3.90;1.20;;;;;;;;;;5071985;28;20049;-66
2023/09/19 03:47:36;;;;;;;7.35;1.33;;;;;;;;;;5072564;28;20052;-66
2023/09/19 03:50:03;;;;;;;3.45;1.50;;;;;;;;;;5072329;28;20052;-65
2023/09/19 03:52:30;;;;;;;3.33;1.17;;;;;;;;;;5072717;28;20048;-66
2023/09/19 03:54:57;;;;;;;2.55;0.90;;;;;;;;;;5072574;28;20061;-66
2023/09/19 03:57:24;;;;;;;4.95;1.48;;;;;;;;;;5072743;28;20052;-66
2023/09/19 03:59:53;;;;;;;4.10;1.33;;;;;;;;;;5072489;28;20048;-66
2023/09/19 04:02:23;;;;;;;3.20;1.10;;;;;;;;;;5071493;28;20417;-66
2023/09/19 04:04:50;;;;;;;4.10;1.38;;;;;;;;;;5071775;28;20048;-66
2023/09/19 04:07:17;;;;;;;2.63;0.93;;;;;;;;;;5071237;28;20485;-65
2023/09/19 04:09:44;;;;;;;12.10;2.03;;;;;;;;;;5072262;28;20409;-65
2023/09/19 04:12:11;;;;;;;3.35;1.15;;;;;;;;;;5072397;28;20056;-66
2023/09/19 04:14:38;;;;;;;4.68;1.70;;;;;;;;;;5075431;28;20055;-66
2023/09/19 04:17:33;;;;;;;4.22;1.42;;;;;;;;;;5076182;28;20057;-66
2023/09/19 04:20:04;;;;;;;3.15;1.42;;;;;;;;;;5089530;28;20055;-66
2023/09/19 04:22:31;;;;;;;2.90;1.60;;;;;;;;;;5096464;28;20052;-67
2023/09/19 04:24:57;;;;;;;5.38;0.93;;;;;;;;;;5093476;28;20405;-66
2023/09/19 04:27:34;;;;;;;3.00;1.30;;;;;;;;;;5095729;28;20508;-66
2023/09/19 04:30:05;;;;;;;3.70;0.98;;;;;;;;;;5090805;28;20052;-66
2023/09/19 04:32:32;;;;;;;2.35;1.05;;;;;;;;;;5083628;28;20122;-66
2023/09/19 04:35:01;;;;;;;3.10;1.45;;;;;;;;;;5077902;28;20056;-66
2023/09/19 04:37:29;;;;;;;6.90;1.70;;;;;;;;;;5075906;28;20516;-66
2023/09/19 04:39:56;;;;;;;4.53;1.48;;;;;;;;;;5075528;28;20496;-67
2023/09/19 04:42:24;;;;;;;5.35;1.10;;;;;;;;;;5078306;28;20067;-66
2023/09/19 04:44:52;;;;;;;2.95;1.23;;;;;;;;;;5075278;28;20413;-66
2023/09/19 04:47:19;;;;;;;4.10;1.27;;;;;;;;;;5084074;28;20442;-66
2023/09/19 04:49:46;;;;;;;4.75;1.70;;;;;;;;;;5082745;28;20054;-66
2023/09/19 04:52:15;;;;;;;7.25;1.60;;;;;;;;;;5093573;28;20056;-66
2023/09/19 04:54:43;;;;;;;4.75;1.20;;;;;;;;;;5075359;28;20060;-65
2023/09/19 04:57:09;;;;;;;3.80;1.30;;;;;;;;;;5095431;28;20056;-67
2023/09/19 04:59:36;;;;;;;4.47;1.30;;;;;;;;;;5081719;28;20204;-65
2023/09/19 05:02:03;;;;;;;3.92;1.55;;;;;;;;;;5082319;28;20052;-66
2023/09/19 05:04:30;;;;;;;6.60;0.93;;;;;;;;;;5076293;28;20060;-66
2023/09/19 05:06:56;;;;;;;4.90;1.92;;;;;;;;;;5082094;28;20052;-66
2023/09/19 05:09:24;;;;;;;1.73;0.95;;;;;;;;;;5095536;28;20052;-66
2023/09/19 05:11:52;;;;;;;4.20;1.00;;;;;;;;;;5080960;28;20052;-66
2023/09/19 05:14:20;;;;;;;4.70;2.10;;;;;;;;;;5084354;28;20059;-66
2023/09/19 05:16:47;;;;;;;3.92;1.45;;;;;;;;;;5088299;28;20052;-66
2023/09/19 05:19:14;;;;;;;7.47;1.15;;;;;;;;;;5076031;28;20412;-65
2023/09/19 05:21:41;;;;;;;3.30;1.30;;;;;;;;;;5074695;28;20071;-66
2023/09/19 05:24:08;;;;;;;3.35;1.65;;;;;;;;;;5093682;28;20060;-66
2023/09/19 05:26:34;;;;;;;3.55;1.20;;;;;;;;;;5087200;28;20080;-66
2023/09/19 05:29:04;;;;;;;5.85;1.08;;;;;;;;;;5089291;28;20059;-65
2023/09/19 05:31:31;;;;;;;2.80;0.90;;;;;;;;;;5082731;28;20052;-66
2023/09/19 05:34:00;;;;;;;4.13;1.45;;;;;;;;;;5081292;28;20048;-66
2023/09/19 05:36:29;;;;;;;1.88;1.23;;;;;;;;;;5094610;28;20055;-65
2023/09/19 05:38:56;;;;;;;3.20;1.90;;;;;;;;;;5094688;28;20067;-65
2023/09/19 05:41:23;;;;;;;3.78;1.20;;;;;;;;;;5094662;28;20052;-66
2023/09/19 05:43:51;;;;;;;3.70;1.30;;;;;;;;;;5076172;28;20052;-66
2023/09/19 05:46:19;;;;;;;4.75;1.63;;;;;;;;;;5075177;28;20060;-65
2023/09/19 05:48:47;;;;;;;4.72;1.55;;;;;;;;;;5074345;28;20390;-66
2023/09/19 05:51:14;;;;;;;3.53;1.23;;;;;;;;;;5085457;28;20063;-66
2023/09/19 05:53:43;;;;;;;5.85;1.85;;;;;;;;;;5094340;28;20052;-65
2023/09/19 05:56:11;;;;;;;8.52;1.98;;;;;;;;;;5089306;28;20040;-65
2023/09/19 05:58:38;;;;;;;5.18;1.50;;;;;;;;;;5078750;28;20074;-66
2023/09/19 06:01:07;;;;;;;3.97;1.55;;;;;;;;;;5083429;28;20505;-66
2023/09/19 06:03:35;;;;;;;8.17;1.63;;;;;;;;;;5086005;28;20048;-65
2023/09/19 06:06:02;;;;;;;2.72;1.20;;;;;;;;;;5075030;28;20418;-66
2023/09/19 06:08:30;;;;;;;6.15;1.33;;;;;;;;;;5088237;28;20119;-66
2023/09/19 06:10:57;;;;;;;4.65;1.88;;;;;;;;;;5090599;28;20055;-66
2023/09/19 06:13:26;;;;;;;3.42;2.08;;;;;;;;;;5091688;28;20051;-66
2023/09/19 06:15:53;;;;;;;4.72;1.35;;;;;;;;;;5086818;28;20401;-65
2023/09/19 06:18:20;;;;;;;7.40;1.55;;;;;;;;;;5073743;28;20048;-65
2023/09/19 06:20:50;;;;;;;6.10;1.50;;;;;;;;;;5075098;28;20053;-65
2023/09/19 06:23:17;;;;;;;2.53;1.20;;;;;;;;;;5078924;28;20053;-65
2023/09/19 06:25:44;;;;;;;3.38;1.05;;;;;;;;;;5086874;28;20524;-65
2023/09/19 06:28:12;;;;;;;5.40;2.17;;;;;;;;;;5079698;28;20424;-65
2023/09/19 06:30:40;;;;;;;3.03;0.90;;;;;;;;;;5073779;28;20052;-65
2023/09/19 06:33:07;;;;;;;6.05;1.40;;;;;;;;;;5073914;28;20508;-65
2023/09/19 06:35:35;;;;;;;5.25;1.75;;;;;;;;;;5073667;28;20072;-65
2023/09/19 06:38:05;;;;;;;3.55;1.13;;;;;;;;;;5072927;28;20409;-65
2023/09/19 06:40:32;;;;;;;5.18;1.70;;;;;;;;;;5073590;28;20079;-65
2023/09/19 06:43:01;;;;;;;6.88;1.70;;;;;;;;;;5077916;28;20048;-64
2023/09/19 06:45:28;;;;;;;4.82;1.30;;;;;;;;;;5093546;28;20052;-64
2023/09/19 06:47:57;;;;;;;3.88;1.38;;;;;;;;;;5092150;28;20081;-64
2023/09/19 06:50:25;;;;;;;5.32;1.65;;;;;;;;;;5093674;28;20055;-64
2023/09/19 06:52:53;;;;;;;7.78;1.48;;;;;;;;;;5093404;28;20412;-64
2023/09/19 06:55:24;;;;;;;4.15;1.80;;;;;;;;;;5093444;28;20056;-64
2023/09/19 06:57:54;;;;;;;3.80;1.58;;;;;;;;;;5090390;28;20516;-64
2023/09/19 07:00:21;;;;;;;2.47;0.85;;;;;;;;;;5091229;28;20059;-64
2023/09/19 07:02:55;;;;;;;8.23;1.80;;;;;;;;;;5092947;28;20047;-64
2023/09/19 07:05:22;;;;;;;5.32;1.70;;;;;;;;;;5093426;28;20052;-64
2023/09/19 07:07:49;;;;;;;4.80;1.65;;;;;;;;;;5092549;28;20078;-64
2023/09/19 07:10:16;;;;;;;4.32;1.60;;;;;;;;;;5091004;28;20048;-65
2023/09/19 07:12:44;;;;;;;4.18;1.60;;;;;;;;;;5080579;28;20056;-64
2023/09/19 07:15:11;;;;;;;11.43;2.45;;;;;;;;;;5072983;28;20067;-64
2023/09/19 07:17:37;;;;;;;8.63;1.50;;;;;;;;;;5073087;28;20064;-64
2023/09/19 07:20:08;;;;;;;7.70;2.15;;;;;;;;;;5072980;28;20413;-64
2023/09/19 07:22:36;;;;;;;7.28;1.40;;;;;;;;;;5072914;28;20052;-64
2023/09/19 07:25:03;;;;;;;3.63;1.23;;;;;;;;;;5072528;28;20063;-65
2023/09/19 07:27:30;;;;;;;2.78;1.10;;;;;;;;;;5081090;28;20469;-64
2023/09/19 07:29:58;;;;;;;10.52;2.35;;;;;;;;;;5092921;28;20055;-64
2023/09/19 07:32:25;;;;;;;6.25;2.05;;;;;;;;;;5092647;28;20066;-64
2023/09/19 07:34:52;;;;;;;5.45;1.67;;;;;;;;;;5092541;28;20048;-64
2023/09/19 07:37:21;;;;;;;7.43;1.98;;;;;;;;;;5092621;28;20513;-64
2023/09/19 07:39:48;;;;;;;5.18;1.83;;;;;;;;;;5092873;28;20062;-64
2023/09/19 07:42:17;;;;;;;3.35;1.10;;;;;;;;;;5089753;28;20060;-64
2023/09/19 07:44:46;;;;;;;;;;;;;;;;;;5093091;28;20051;-65
2023/09/19 07:47:15;;;;;;;3.47;1.40;;;;;;;;;;5092377;28;19920;-64
2023/09/19 07:49:42;;;;;;;7.65;1.73;;;;;;;;;;5098313;28;20063;-64
2023/09/19 07:52:10;;;;;;;4.15;1.02;;;;;;;;;;5099414;28;20386;-64
2023/09/19 07:54:37;;;;;;;7.70;1.67;;;;;;;;;;5098678;28;20056;-65
2023/09/19 07:57:04;;;;;;;3.60;1.25;;;;;;;;;;5094571;28;20075;-65
2023/09/19 07:59:31;;;;;;;2.67;0.98;;;;;;;;;;5099172;28;20048;-65
2023/09/19 08:01:58;;;;;;;5.22;1.65;;;;;;;;;;5078759;28;20071;-65
2023/09/19 08:04:26;;;;;;;3.75;1.88;;;;;;;;;;5078984;28;20052;-64
2023/09/19 08:06:55;;;;;;;3.80;1.23;;;;;;;;;;5089683;28;20413;-64
2023/09/19 08:09:23;;;;;;;3.53;1.38;;;;;;;;;;5095764;28;20473;-63
2023/09/19 08:11:50;;;;;;;4.18;1.05;;;;;;;;;;5095136;28;20059;-64
2023/09/19 08:14:17;;;;;;;6.65;1.65;;;;;;;;;;5099359;28;20052;-64
2023/09/19 08:16:44;;;;;;;6.03;1.27;;;;;;;;;;5099259;28;20047;-64
2023/09/19 08:19:11;;;;;;;6.38;1.85;;;;;;;;;;5099311;28;20059;-63
2023/09/19 08:21:39;;;;;;;4.13;1.75;;;;;;;;;;5099369;28;20500;-64
2023/09/19 08:24:06;;;;;;;3.97;1.48;;;;;;;;;;5099258;28;20055;-64
2023/09/19 08:26:33;;;;;;;3.40;1.20;;;;;;;;;;5095906;28;20055;-64
2023/09/19 08:29:04;;;;;;;4.60;1.08;;;;;;;;;;5078930;28;20500;-64
2023/09/19 08:31:31;;;;;;;6.00;1.02;;;;;;;;;;5078667;28;20060;-64
2023/09/19 08:33:58;;;;;;;4.78;1.30;;;;;;;;;;5077955;28;20055;-64
2023/09/19 08:36:24;;;;;;;3.88;1.38;;;;;;;;;;5078887;28;20044;-64
2023/09/19 08:38:53;;;;;;;4.95;1.27;;;;;;;;;;5078730;28;20056;-63
2023/09/19 08:41:19;;;;;;;6.63;1.20;;;;;;;;;;5078627;28;20075;-64
2023/09/19 08:43:47;;;;;;;3.78;1.10;;;;;;;;;;5079656;28;20059;-64
2023/09/19 08:46:16;;;;;;;6.15;1.40;;;;;;;;;;5088655;28;20419;-64
2023/09/19 08:48:48;;;;;;;2.22;1.00;;;;;;;;;;5079007;28;20052;-64
2023/09/19 08:51:18;;;;;;;2.47;1.20;;;;;;;;;;5078448;28;20059;-64
2023/09/19 08:53:50;;;;;;;4.55;1.52;;;;;;;;;;5078343;28;20059;-64
2023/09/19 08:56:19;;;;;;;3.08;1.35;;;;;;;;;;5095340;28;20071;-64
2023/09/19 08:58:48;;;;;;;4.90;1.55;;;;;;;;;;5086110;28;20059;-65
2023/09/19 09:01:16;;;;;;;5.05;1.48;;;;;;;;;;5095564;28;20080;-63
2023/09/19 09:03:46;;;;;;;3.28;1.15;;;;;;;;;;5095798;28;20063;-64
2023/09/19 09:06:15;;;;;;;2.60;1.00;;;;;;;;;;5095400;28;20063;-64
2023/09/19 09:08:42;;;;;;;5.68;2.05;;;;;;;;;;5095718;28;20056;-64
2023/09/19 09:11:09;;;;;;;4.40;1.90;;;;;;;;;;5095493;28;20060;-64
2023/09/19 09:13:38;;;;;;;4.45;1.52;;;;;;;;;;5092035;28;20055;-64
2023/09/19 09:16:05;;;;;;;4.85;1.70;;;;;;;;;;5079538;28;20048;-64
2023/09/19 09:18:32;;;;;;;9.75;1.55;;;;;;;;;;5075127;28;20424;-64
2023/09/19 09:20:59;;;;;;;3.20;1.30;;;;;;;;;;5074904;28;20234;-62
2023/09/19 09:23:28;;;;;;;3.85;1.95;;;;;;;;;;5074600;28;20058;-62
2023/09/19 09:25:56;;;;;;;6.55;1.00;;;;;;;;;;5074822;28;20063;-62
2023/09/19 09:28:23;;;;;;;2.97;1.48;;;;;;;;;;5089522;28;20062;-62
2023/09/19 09:30:52;;;;;;;7.03;1.33;;;;;;;;;;5095152;28;20473;-62
2023/09/19 09:33:19;;;;;;;2.72;1.35;;;;;;;;;;5095241;28;20078;-62
2023/09/19 09:35:51;;;;;;;4.18;1.25;;;;;;;;;;5095197;28;20071;-63
2023/09/19 09:38:18;;;;;;;4.07;1.52;;;;;;;;;;5095133;28;20044;-63
2023/09/19 09:40:52;;;;;;;2.78;1.40;;;;;;;;;;5095014;28;20059;-63
2023/09/19 09:43:35;;;;;;;3.28;1.17;;;;;;;;;;5091461;28;20055;-62
2023/09/19 09:46:54;;;;;;;4.68;1.20;;;;;;;;;;5095012;28;20052;-62
2023/09/19 09:49:15;;;;;;;4.35;1.25;;;;;;;;;;5094582;28;20048;-62
2023/09/19 09:51:43;;;;;;;3.42;1.05;;;;;;;;;;5094580;28;20480;-63
2023/09/19 09:54:14;;;;;;;2.22;0.80;;;;;;;;;;5094458;28;20071;-62
2023/09/19 09:56:53;;;;;;;2.08;1.13;;;;;;;;;;5091735;28;20051;-62
2023/09/19 09:59:23;;;;;;;3.53;1.38;;;;;;;;;;5090833;28;20067;-63
2023/09/19 10:01:53;;;;;;;2.17;1.15;;;;;;;;;;5094760;28;20056;-62
2023/09/19 10:04:29;;;;;;;4.47;1.10;;;;;;;;;;5094209;28;20374;-63
2023/09/19 10:06:56;;;;;;;4.07;1.40;;;;;;;;;;5094601;28;20044;-62
2023/09/19 10:09:29;;;;;;;2.25;1.17;;;;;;;;;;5094468;28;20048;-62
2023/09/19 10:12:03;;;;;;;4.88;1.00;;;;;;;;;;5090017;28;20055;-62
2023/09/19 10:14:31;;;;;;;6.30;1.45;;;;;;;;;;5093546;28;20060;-63
2023/09/19 10:17:03;;;;;;;2.83;1.00;;;;;;;;;;5094507;28;20383;-62
2023/09/19 10:19:33;;;;;;;5.10;1.35;;;;;;;;;;5093851;28;20063;-62
2023/09/19 10:22:02;;;;;;;3.50;0.98;;;;;;;;;;5094346;28;20122;-63
2023/09/19 10:24:31;;;;;;;2.47;0.88;;;;;;;;;;5093868;28;20056;-63
2023/09/19 10:26:58;;;;;;;3.60;1.10;;;;;;;;;;5091093;28;20071;-63
2023/09/19 10:29:26;;;;;;;3.30;1.30;;;;;;;;;;5092125;28;20052;-63
2023/09/19 10:31:53;;;;;;;3.70;1.08;;;;;;;;;;5094090;28;20138;-64
2023/09/19 10:34:22;;;;;;;3.45;1.00;;;;;;;;;;5093819;28;20048;-63
2023/09/19 10:36:49;;;;;;;1.65;0.90;;;;;;;;;;5093596;28;20063;-64
2023/09/19 10:39:20;;;;;;;5.10;1.60;;;;;;;;;;5089504;28;20493;-64
2023/09/19 10:41:53;;;;;;;2.45;1.02;;;;;;;;;;5091608;28;20052;-63
2023/09/19 10:44:22;;;;;;;2.35;0.90;;;;;;;;;;5073354;28;20489;-63
2023/09/19 10:46:49;;;;;;;2.90;1.00;;;;;;;;;;5083875;28;20052;-64
2023/09/19 10:49:16;;;;;;;3.97;1.45;;;;;;;;;;5073259;28;20071;-64
2023/09/19 10:51:45;;;;;;;2.70;1.02;;;;;;;;;;5072383;28;20056;-63
2023/09/19 10:54:13;;;;;;;2.85;1.13;;;;;;;;;;5073047;28;20139;-64
2023/09/19 10:56:45;;;;;;;3.47;1.10;;;;;;;;;;5075816;28;20055;-63
2023/09/19 10:59:12;;;;;;;2.90;1.08;;;;;;;;;;5083146;28;20060;-63
2023/09/19 11:01:47;;;;;;;3.92;1.45;;;;;;;;;;5073211;28;20056;-63
2023/09/19 11:04:24;;;;;;;2.63;0.70;;;;;;;;;;5073202;28;20056;-64
2023/09/19 11:07:03;;;;;;;2.95;0.88;;;;;;;;;;5077838;28;20052;-64
2023/09/19 11:09:45;;;;;;;2.28;0.70;;;;;;;;;;5093327;28;20063;-63
2023/09/19 11:12:13;;;;;;;3.33;1.73;;;;;;;;;;5090305;28;20063;-63
2023/09/19 11:14:40;;;;;;;4.13;0.77;;;;;;;;;;5092978;28;20052;-63
2023/09/19 11:17:25;;;;;;;2.83;1.10;;;;;;;;;;5093410;28;20405;-63
2023/09/19 11:20:23;;;;;;;4.45;1.10;;;;;;;;;;5092932;28;20052;-64
2023/09/19 11:23:09;;;;;;;2.40;1.10;;;;;;;;;;5092728;28;20059;-63
2023/09/19 11:25:49;;;;;;;6.28;1.30;;;;;;;;;;5092917;28;20063;-63
2023/09/19 11:28:35;;;;;;;3.03;0.90;;;;;;;;;;5089847;28;20059;-63
2023/09/19 11:31:17;;;;;;;2.08;0.80;;;;;;;;;;5093211;28;20052;-63
2023/09/19 11:33:46;;;;;;;3.40;1.30;;;;;;;;;;5089296;28;20048;-63
2023/09/19 11:36:15;;;;;;;2.20;1.27;;;;;;;;;;5089923;28;20055;-63
2023/09/19 11:39:08;;;;;;;2.88;1.00;;;;;;;;;;5092937;28;20048;-63
2023/09/19 11:41:40;;;;;;;2.05;0.95;;;;;;;;;;5088573;28;20044;-62
2023/09/19 11:44:25;;;;;;;3.55;0.80;;;;;;;;;;5091230;28;20059;-63
2023/09/19 11:46:56;;;;;;;3.15;0.95;;;;;;;;;;5092477;28;20434;-63
2023/09/19 11:49:29;;;;;;;2.20;0.93;;;;;;;;;;5092314;28;20505;-63
2023/09/19 11:51:57;;;;;;;1.75;0.85;;;;;;;;;;5088842;28;20481;-64
2023/09/19 11:54:27;;;;;;;5.07;1.50;;;;;;;;;;5092238;28;20052;-63
2023/09/19 11:56:56;;;;;;;3.88;0.90;;;;;;;;;;5084398;28;20045;-63
2023/09/19 11:59:23;;;;;;;3.05;0.90;;;;;;;;;;5072241;28;20049;-63
2023/09/19 12:01:57;;;;;;;6.57;1.23;;;;;;;;;;5072219;28;20052;-63
2023/09/19 12:04:37;;;;;;;1.73;0.73;;;;;;;;;;5084522;28;20500;-63
2023/09/19 12:07:05;;;;;;;3.08;1.13;;;;;;;;;;5092603;28;20067;-64
2023/09/19 12:09:32;;;;;;;4.72;1.27;;;;;;;;;;5086570;28;20055;-64
2023/09/19 12:12:00;;;;;;;1.92;0.73;;;;;;;;;;5071144;28;20059;-63
2023/09/19 12:14:27;;;;;;;2.67;0.90;;;;;;;;;;5072301;28;20048;-63
2023/09/19 12:16:55;;;;;;;2.28;0.90;;;;;;;;;;5072372;28;20048;-63
2023/09/19 12:19:23;;;;;;;1.48;0.85;;;;;;;;;;5072036;28;20049;-63
2023/09/19 12:22:04;;;;;;;3.58;1.30;;;;;;;;;;5072451;28;20052;-63
2023/09/19 12:24:31;;;;;;;1.67;0.90;;;;;;;;;;5072380;28;20060;-64
2023/09/19 12:27:04;;;;;;;1.90;0.75;;;;;;;;;;5080870;28;20051;-64
2023/09/19 12:29:31;;;;;;;2.22;1.10;;;;;;;;;;5092152;28;20504;-63
2023/09/19 12:31:58;;;;;;;1.48;0.77;;;;;;;;;;5091939;28;20074;-63
2023/09/19 12:34:27;;;;;;;1.92;0.90;;;;;;;;;;5092407;28;20044;-63
2023/09/19 12:37:11;;;;;;;1.38;0.50;;;;;;;;;;5095891;28;20138;-63
2023/09/19 12:39:38;;;;;;;1.90;0.82;;;;;;;;;;5089954;28;20053;-63
2023/09/19 12:42:08;;;;;;;1.98;0.88;;;;;;;;;;5088335;28;20056;-63
2023/09/19 12:44:36;;;;;;;1.83;0.77;;;;;;;;;;5095700;28;20052;-63
2023/09/19 12:47:09;;;;;;;1.60;0.98;;;;;;;;;;5096271;28;20394;-64
2023/09/19 12:49:36;;;;;;;2.22;1.10;;;;;;;;;;5095721;28;20055;-63
2023/09/19 12:52:03;;;;;;;1.73;0.70;;;;;;;;;;5096112;28;20063;-63
2023/09/19 12:54:38;;;;;;;3.05;0.90;;;;;;;;;;5095728;28;20059;-63
2023/09/19 12:57:06;;;;;;;1.98;0.90;;;;;;;;;;5094426;28;20397;-62
2023/09/19 12:59:35;;;;;;;2.90;1.05;;;;;;;;;;5095840;28;20052;-63
2023/09/19 13:02:07;;;;;;;3.60;1.45;;;;;;;;;;5095979;28;20056;-63
2023/09/19 13:04:40;;;;;;;2.80;1.17;;;;;;;;;;5095109;28;20047;-63
2023/09/19 13:07:07;;;;;;;3.25;1.33;;;;;;;;;;5095890;28;20052;-63
2023/09/19 13:09:35;;;;;;;1.40;0.65;;;;;;;;;;5093232;28;20055;-62
2023/09/19 13:12:02;;;;;;;2.15;1.08;;;;;;;;;;5094748;28;20052;-62
2023/09/19 13:14:33;;;;;;;3.55;0.90;;;;;;;;;;5095176;28;20507;-62
2023/09/19 13:17:03;;;;;;;3.00;1.23;;;;;;;;;;5095461;28;20062;-62
2023/09/19 13:19:40;;;;;;;2.85;0.75;;;;;;;;;;5095513;28;20061;-62
2023/09/19 13:22:27;;;;;;;3.83;1.17;;;;;;;;;;5095479;28;20401;-62
2023/09/19 13:24:54;;;;;;;2.28;0.90;;;;;;;;;;5088200;28;20056;-62
2023/09/19 13:27:21;;;;;;;3.78;0.90;;;;;;;;;;5074894;28;20057;-63
2023/09/19 13:29:50;;;;;;;1.27;0.85;;;;;;;;;;5074753;28;20055;-63
2023/09/19 13:32:16;;;;;;;2.55;1.50;;;;;;;;;;5074828;28;20052;-63
2023/09/19 13:34:43;;;;;;;1.50;0.80;;;;;;;;;;5074686;28;20048;-62
2023/09/19 13:37:10;;;;;;;3.05;0.95;;;;;;;;;;5074269;28;20048;-62
2023/09/19 13:39:37;;;;;;;3.35;1.25;;;;;;;;;;5074525;28;20049;-62
2023/09/19 13:42:04;;;;;;;2.28;0.80;;;;;;;;;;5094661;28;20052;-62
2023/09/19 13:44:31;;;;;;;4.97;1.05;;;;;;;;;;5094688;28;20052;-62
2023/09/19 13:47:02;;;;;;;2.05;1.02;;;;;;;;;;5094756;28;20052;-62
2023/09/19 13:49:31;;;;;;;1.15;0.50;;;;;;;;;;5094454;28;20055;-61
2023/09/19 13:52:01;;;;;;;2.47;0.90;;;;;;;;;;5092646;28;20048;-62
2023/09/19 13:54:27;;;;;;;1.63;0.70;;;;;;;;;;5090887;28;20052;-62
2023/09/19 13:56:54;;;;;;;2.22;0.95;;;;;;;;;;5093790;28;20056;-62
2023/09/19 13:59:23;;;;;;;2.08;0.82;;;;;;;;;;5076012;28;20048;-62
2023/09/19 14:01:50;;;;;;;1.88;0.80;;;;;;;;;;5082175;28;20052;-62
2023/09/19 14:04:18;;;;;;;2.70;0.90;;;;;;;;;;5080968;28;20413;-63
2023/09/19 14:06:46;;;;;;;2.08;0.80;;;;;;;;;;5074206;28;20048;-64
2023/09/19 14:09:13;;;;;;;2.17;0.80;;;;;;;;;;5074996;28;20051;-62
2023/09/19 14:11:42;;;;;;;2.08;0.77;;;;;;;;;;5092715;28;20063;-62
2023/09/19 14:14:08;;;;;;;1.30;0.82;;;;;;;;;;5082186;28;20056;-62
2023/09/19 14:16:35;;;;;;;2.47;0.85;;;;;;;;;;5073884;28;20053;-62
2023/09/19 14:19:03;;;;;;;3.15;1.10;;;;;;;;;;5073936;28;20057;-62
2023/09/19 14:21:31;;;;;;;2.28;0.90;;;;;;;;;;5074380;28;20056;-62
2023/09/19 14:23:58;;;;;;;1.40;0.70;;;;;;;;;;5073371;28;20048;-62
2023/09/19 14:26:25;;;;;;;1.65;0.65;;;;;;;;;;5092042;28;20078;-63
2023/09/19 14:28:51;;;;;;;1.65;0.70;;;;;;;;;;5092010;28;20071;-62
2023/09/19 14:31:19;;;;;;;2.45;0.70;;;;;;;;;;5093972;28;20055;-62
2023/09/19 14:33:45;;;;;;;3.20;0.70;;;;;;;;;;5093587;28;20055;-63
2023/09/19 14:36:13;;;;;;;1.95;0.70;;;;;;;;;;5094001;28;20125;-63
2023/09/19 14:38:41;;;;;;;1.85;0.40;;;;;;;;;;5090611;28;20509;-63
2023/09/19 14:41:08;;;;;;;2.13;0.60;;;;;;;;;;5093757;28;20071;-62
2023/09/19 14:43:35;;;;;;;1.83;0.65;;;;;;;;;;5091244;28;20056;-62
2023/09/19 14:46:03;;;;;;;2.20;0.70;;;;;;;;;;5092654;28;20055;-62
2023/09/19 14:48:30;;;;;;;1.75;0.70;;;;;;;;;;5093475;28;20481;-62
2023/09/19 14:51:02;;;;;;;1.92;0.80;;;;;;;;;;5088915;28;20501;-62
2023/09/19 14:53:29;;;;;;;1.23;0.60;;;;;;;;;;5093736;28;20060;-62
2023/09/19 14:55:57;;;;;;;2.15;0.65;;;;;;;;;;5079817;28;20055;-63